createdAt,value
2022-11-29T00:01:50.133Z,6.12
2022-11-29T00:04:19.363Z,5.97
2022-11-29T00:06:48.754Z,5.87
2022-11-29T00:09:19.164Z,5.60
2022-11-29T00:12:06.883Z,5.54
2022-11-29T00:14:36.121Z,5.41
2022-11-29T00:17:06.106Z,5.22
2022-11-29T00:19:37.254Z,5.09
2022-11-29T00:22:06.663Z,5.01
2022-11-29T00:24:36.756Z,4.98
2022-11-29T00:27:06.147Z,5.00
2022-11-29T00:29:35.766Z,5.16
2022-11-29T00:32:05.377Z,5.14
2022-11-29T00:34:34.753Z,5.05
2022-11-29T00:37:04.017Z,4.82
2022-11-29T00:39:33.221Z,4.68
2022-11-29T00:42:02.636Z,4.58
2022-11-29T00:44:31.904Z,4.53
2022-11-29T00:47:01.154Z,4.57
2022-11-29T00:49:30.370Z,4.54
2022-11-29T00:51:59.845Z,4.62
2022-11-29T00:54:29.120Z,4.65
2022-11-29T00:56:58.422Z,4.62
2022-11-29T00:59:27.703Z,4.60
2022-11-29T01:01:57.448Z,4.63
2022-11-29T01:04:26.691Z,4.57
2022-11-29T01:06:56.131Z,4.52
2022-11-29T01:09:25.331Z,4.43
2022-11-29T01:11:54.805Z,4.35
2022-11-29T01:14:24.015Z,4.40
2022-11-29T01:16:53.291Z,4.40
2022-11-29T01:19:22.492Z,4.39
2022-11-29T01:21:51.758Z,4.36
2022-11-29T01:24:22.230Z,4.29
2022-11-29T01:26:51.686Z,4.15
2022-11-29T01:29:20.887Z,4.09
2022-11-29T01:31:50.207Z,4.13
2022-11-29T01:34:19.449Z,4.19
2022-11-29T01:36:48.714Z,4.20
2022-11-29T01:39:17.913Z,4.18
2022-11-29T01:41:47.294Z,4.19
2022-11-29T01:44:19.712Z,4.13
2022-11-29T01:46:49.785Z,4.10
2022-11-29T01:49:22.102Z,4.13
2022-11-29T01:52:06.845Z,4.08
2022-11-29T01:54:39.338Z,4.02
2022-11-29T01:57:10.183Z,3.93
2022-11-29T01:59:44.864Z,3.91
2022-11-29T02:02:17.553Z,3.88
2022-11-29T02:04:47.753Z,3.93
2022-11-29T02:07:17.645Z,3.94
2022-11-29T02:09:46.905Z,3.95
2022-11-29T02:12:34.624Z,3.94
2022-11-29T02:15:31.275Z,3.93
2022-11-29T02:18:14.901Z,3.95
2022-11-29T02:21:05.388Z,3.91
2022-11-29T02:23:50.033Z,3.89
2022-11-29T02:26:28.356Z,3.94
2022-11-29T02:29:29.711Z,3.89
2022-11-29T02:32:08.038Z,3.89
2022-11-29T02:34:49.413Z,3.90
2022-11-29T02:37:40.339Z,3.92
2022-11-29T02:40:41.835Z,3.94
2022-11-29T02:43:19.875Z,3.94
2022-11-29T02:46:04.358Z,4.05
2022-11-29T02:48:54.931Z,4.09
2022-11-29T02:51:30.346Z,4.06
2022-11-29T02:54:22.707Z,4.04
2022-11-29T02:57:10.141Z,4.05
2022-11-29T02:59:54.394Z,4.14
2022-11-29T03:02:35.150Z,4.05
2022-11-29T03:05:19.183Z,3.96
2022-11-29T03:07:51.864Z,3.98
2022-11-29T03:10:33.552Z,3.83
2022-11-29T03:13:04.914Z,3.87
2022-11-29T03:15:37.576Z,3.70
2022-11-29T03:18:30.982Z,3.68
2022-11-29T03:21:20.256Z,3.76
2022-11-29T03:23:55.692Z,3.76
2022-11-29T03:26:52.479Z,3.69
2022-11-29T03:29:45.960Z,3.63
2022-11-29T03:32:21.056Z,3.64
2022-11-29T03:34:57.554Z,3.67
2022-11-29T03:37:48.125Z,3.67
2022-11-29T03:40:23.197Z,3.71
2022-11-29T03:42:55.720Z,3.70
2022-11-29T03:45:28.920Z,3.70
2022-11-29T03:48:10.345Z,3.75
2022-11-29T03:50:42.772Z,3.65
2022-11-29T03:53:17.980Z,3.64
2022-11-29T03:55:53.681Z,3.64
2022-11-29T03:58:34.857Z,3.66
2022-11-29T04:01:22.658Z,3.71
2022-11-29T04:04:13.614Z,3.71
2022-11-29T04:06:48.730Z,3.74
2022-11-29T04:09:23.871Z,3.77
2022-11-29T04:12:29.701Z,3.82
2022-11-29T04:15:17.306Z,3.84
2022-11-29T04:18:01.846Z,3.81
2022-11-29T04:20:52.427Z,3.82
2022-11-29T04:23:42.882Z,3.85
2022-11-29T04:26:35.075Z,3.81
2022-11-29T04:29:18.195Z,3.74
2022-11-29T04:31:56.219Z,3.79
2022-11-29T04:35:01.955Z,3.86
2022-11-29T04:37:34.403Z,3.83
2022-11-29T04:40:18.714Z,3.89
2022-11-29T04:43:11.003Z,3.88
2022-11-29T04:46:01.673Z,3.94
2022-11-29T04:48:52.139Z,3.93
2022-11-29T04:51:39.683Z,3.94
2022-11-29T04:54:12.157Z,3.93
2022-11-29T04:56:47.747Z,3.94
2022-11-29T04:59:29.280Z,3.95
2022-11-29T05:02:16.568Z,3.98
2022-11-29T05:04:57.645Z,3.98
2022-11-29T05:07:39.036Z,3.95
2022-11-29T05:10:22.930Z,3.99
2022-11-29T05:12:55.535Z,4.03
2022-11-29T05:15:35.001Z,4.13
2022-11-29T05:18:07.380Z,4.13
2022-11-29T05:20:48.887Z,4.12
2022-11-29T05:23:27.354Z,4.16
2022-11-29T05:26:08.317Z,4.18
2022-11-29T05:28:50.452Z,4.12
2022-11-29T05:31:44.303Z,4.09
2022-11-29T05:34:36.402Z,4.21
2022-11-29T05:37:24.102Z,4.21
2022-11-29T05:40:08.031Z,4.24
2022-11-29T05:43:00.040Z,4.19
2022-11-29T05:45:50.959Z,4.14
2022-11-29T05:48:32.311Z,4.07
2022-11-29T05:51:21.233Z,4.10
2022-11-29T05:54:11.896Z,4.13
2022-11-29T05:57:09.591Z,4.13
2022-11-29T05:59:39.918Z,4.15
2022-11-29T06:02:30.348Z,4.14
2022-11-29T06:05:08.584Z,4.15
2022-11-29T06:07:48.516Z,4.21
2022-11-29T06:10:22.812Z,4.27
2022-11-29T06:13:24.085Z,4.29
2022-11-29T06:16:05.111Z,4.28
2022-11-29T06:19:00.613Z,4.29
2022-11-29T06:21:42.933Z,4.28
2022-11-29T06:24:30.649Z,4.30
2022-11-29T06:27:11.430Z,4.33
2022-11-29T06:29:44.099Z,4.34
2022-11-29T06:32:50.534Z,4.39
2022-11-29T06:35:35.140Z,4.43
2022-11-29T06:38:13.740Z,4.45
2022-11-29T06:40:43.514Z,4.49
2022-11-29T06:43:13.094Z,4.55
2022-11-29T06:45:45.510Z,4.51
2022-11-29T06:48:17.635Z,4.49
2022-11-29T06:50:59.112Z,4.50
2022-11-29T06:53:40.244Z,4.49
2022-11-29T06:56:27.949Z,4.49
2022-11-29T06:59:20.207Z,4.55
2022-11-29T07:01:55.414Z,4.51
2022-11-29T07:04:45.690Z,4.50
2022-11-29T07:07:17.871Z,4.52
2022-11-29T07:09:51.838Z,4.52
2022-11-29T07:12:21.533Z,4.48
2022-11-29T07:14:51.134Z,4.52
2022-11-29T07:17:26.611Z,4.54
2022-11-29T07:20:08.797Z,4.53
2022-11-29T07:22:53.049Z,4.44
2022-11-29T07:25:57.130Z,4.53
2022-11-29T07:28:38.767Z,4.55
2022-11-29T07:31:11.217Z,4.59
2022-11-29T07:33:46.921Z,4.55
2022-11-29T07:36:28.506Z,4.61
2022-11-29T07:39:36.221Z,4.55
2022-11-29T07:42:11.402Z,4.59
2022-11-29T07:44:47.328Z,4.68
2022-11-29T07:47:16.702Z,4.67
2022-11-29T07:49:46.107Z,4.70
2022-11-29T07:52:16.511Z,4.71
2022-11-29T07:54:46.244Z,4.76
2022-11-29T07:57:15.795Z,4.78
2022-11-29T07:59:45.557Z,4.81
2022-11-29T08:02:15.303Z,4.88
2022-11-29T08:04:45.160Z,4.90
2022-11-29T08:07:14.896Z,4.89
2022-11-29T08:09:44.497Z,4.98
2022-11-29T08:12:13.972Z,5.01
2022-11-29T08:14:43.807Z,5.09
2022-11-29T08:17:13.591Z,5.22
2022-11-29T08:19:42.883Z,5.21
2022-11-29T08:22:13.346Z,5.22
2022-11-29T08:24:43.165Z,5.26
2022-11-29T08:27:12.679Z,5.33
2022-11-29T08:29:42.104Z,5.38
2022-11-29T08:32:11.332Z,5.39
2022-11-29T08:34:40.565Z,5.41
2022-11-29T08:37:09.987Z,5.48
2022-11-29T08:39:39.373Z,5.60
2022-11-29T08:42:09.246Z,5.73
2022-11-29T08:44:38.624Z,5.73
2022-11-29T08:47:25.752Z,5.72
2022-11-29T08:50:03.721Z,5.90
2022-11-29T08:52:54.007Z,5.93
2022-11-29T08:55:26.287Z,5.95
2022-11-29T08:57:58.051Z,6.04
2022-11-29T09:00:27.325Z,6.24
2022-11-29T09:02:58.236Z,6.24
2022-11-29T09:05:27.634Z,6.21
2022-11-29T09:07:56.926Z,6.33
2022-11-29T09:10:26.573Z,6.30
2022-11-29T09:12:56.493Z,6.34
2022-11-29T09:15:25.822Z,6.37
2022-11-29T09:17:55.045Z,6.44
2022-11-29T09:20:25.391Z,6.70
2022-11-29T09:22:54.661Z,6.78
2022-11-29T09:25:23.919Z,6.80
2022-11-29T09:27:53.155Z,6.85
2022-11-29T09:30:23.919Z,6.81
2022-11-29T09:32:53.352Z,6.84
2022-11-29T09:35:22.602Z,6.82
2022-11-29T09:37:51.961Z,6.85
2022-11-29T09:40:24.144Z,6.81
2022-11-29T09:43:05.591Z,6.77
2022-11-29T09:45:40.500Z,6.99
2022-11-29T09:48:28.310Z,6.86
2022-11-29T09:51:03.831Z,6.94
2022-11-29T09:53:45.138Z,6.82
2022-11-29T09:56:26.631Z,6.81
2022-11-29T09:59:06.032Z,6.92
2022-11-29T10:01:47.571Z,6.84
2022-11-29T10:04:25.993Z,6.92
2022-11-29T10:07:01.531Z,6.84
2022-11-29T10:09:39.235Z,6.97
2022-11-29T10:12:17.535Z,7.02
2022-11-29T10:14:53.976Z,6.80
2022-11-29T10:17:38.726Z,6.94
2022-11-29T10:20:11.543Z,6.85
2022-11-29T10:23:01.968Z,6.93
2022-11-29T10:25:50.292Z,6.97
2022-11-29T10:28:25.988Z,6.92
2022-11-29T10:30:56.630Z,7.00
2022-11-29T10:33:33.881Z,6.89
2022-11-29T10:36:05.711Z,6.92
2022-11-29T10:38:34.941Z,6.93
2022-11-29T10:41:09.654Z,6.91
2022-11-29T10:43:39.377Z,7.01
2022-11-29T10:46:23.776Z,6.77
2022-11-29T10:48:54.275Z,7.00
2022-11-29T10:51:23.663Z,6.96
2022-11-29T10:53:56.069Z,6.82
2022-11-29T10:56:31.198Z,6.98
2022-11-29T10:59:07.233Z,6.88
2022-11-29T11:01:44.010Z,6.88
2022-11-29T11:04:34.283Z,7.03
2022-11-29T11:07:05.406Z,6.88
2022-11-29T11:09:41.563Z,6.76
2022-11-29T11:12:19.953Z,6.74
2022-11-29T11:14:51.441Z,6.81
2022-11-29T11:17:27.575Z,6.79
2022-11-29T11:20:00.749Z,6.71
2022-11-29T11:22:32.663Z,6.73
2022-11-29T11:25:06.926Z,6.69
2022-11-29T11:27:41.616Z,6.63
2022-11-29T11:30:25.160Z,6.68
2022-11-29T11:33:17.253Z,6.67
2022-11-29T11:35:48.092Z,6.75
2022-11-29T11:38:18.440Z,6.86
2022-11-29T11:40:47.642Z,6.83
2022-11-29T11:43:21.734Z,6.88
2022-11-29T11:45:54.698Z,6.93
2022-11-29T11:48:24.353Z,6.88
2022-11-29T11:50:58.991Z,6.92
2022-11-29T11:53:30.950Z,6.89
2022-11-29T11:56:02.381Z,6.96
2022-11-29T11:58:33.915Z,6.98
2022-11-29T12:01:15.612Z,7.12
2022-11-29T12:04:03.036Z,7.09
2022-11-29T12:06:53.713Z,7.09
2022-11-29T12:09:37.498Z,7.22
2022-11-29T12:12:27.330Z,7.37
2022-11-29T12:15:01.570Z,7.39
2022-11-29T12:17:39.138Z,7.45
2022-11-29T12:20:17.694Z,7.42
2022-11-29T12:23:11.412Z,7.48
2022-11-29T12:25:58.901Z,7.43
2022-11-29T12:28:33.663Z,7.51
2022-11-29T12:31:21.112Z,7.50
2022-11-29T12:34:26.555Z,7.46
2022-11-29T12:37:02.534Z,7.47
2022-11-29T12:39:35.168Z,7.28
2022-11-29T12:42:17.193Z,7.33
2022-11-29T12:45:11.920Z,7.43
2022-11-29T12:47:53.520Z,7.41
2022-11-29T12:50:43.330Z,7.33
2022-11-29T12:53:31.146Z,7.51
2022-11-29T12:56:11.048Z,7.71
2022-11-29T12:58:55.151Z,7.77
2022-11-29T13:01:39.553Z,7.67
2022-11-29T13:04:30.274Z,7.74
2022-11-29T13:07:11.087Z,7.65
2022-11-29T13:09:49.397Z,7.83
2022-11-29T13:12:40.031Z,7.92
2022-11-29T13:15:17.669Z,7.82
2022-11-29T13:18:08.500Z,7.80
2022-11-29T13:20:46.902Z,7.84
2022-11-29T13:23:46.028Z,7.88
2022-11-29T13:26:07.468Z,7.87
2022-11-29T13:28:41.359Z,7.82
2022-11-29T13:31:14.052Z,7.78
2022-11-29T13:34:03.046Z,7.83
2022-11-29T13:37:07.437Z,7.87
2022-11-29T13:39:42.695Z,7.89
2022-11-29T13:42:24.243Z,7.84
2022-11-29T13:45:05.826Z,7.78
2022-11-29T13:47:38.187Z,7.76
2022-11-29T13:50:09.882Z,7.64
2022-11-29T13:52:48.831Z,7.62
2022-11-29T13:55:24.688Z,7.68
2022-11-29T13:58:16.881Z,7.61
2022-11-29T14:00:40.067Z,7.69
2022-11-29T14:03:27.820Z,7.74
2022-11-29T14:06:05.626Z,7.76
2022-11-29T14:09:18.930Z,7.78
2022-11-29T14:11:52.022Z,7.83
2022-11-29T14:14:30.155Z,7.81
2022-11-29T14:17:02.676Z,7.85
2022-11-29T14:19:34.574Z,7.88
2022-11-29T14:22:18.396Z,7.86
2022-11-29T14:24:59.845Z,7.83
2022-11-29T14:27:35.263Z,7.92
2022-11-29T14:30:05.129Z,7.79
2022-11-29T14:32:56.297Z,7.79
2022-11-29T14:35:28.738Z,7.67
2022-11-29T14:38:06.243Z,7.59
2022-11-29T14:40:44.792Z,7.51
2022-11-29T14:43:29.230Z,7.46
2022-11-29T14:46:10.086Z,7.45
2022-11-29T14:48:39.492Z,7.48
2022-11-29T14:51:20.033Z,7.52
2022-11-29T14:53:52.122Z,7.62
2022-11-29T14:56:35.103Z,7.59
2022-11-29T14:59:42.681Z,7.55
2022-11-29T15:02:43.272Z,7.43
2022-11-29T15:05:34.658Z,7.36
2022-11-29T15:08:23.868Z,7.35
2022-11-29T15:11:02.146Z,7.30
2022-11-29T15:13:34.351Z,7.25
2022-11-29T15:16:23.317Z,7.12
2022-11-29T15:18:55.717Z,7.12
2022-11-29T15:21:40.142Z,7.15
2022-11-29T15:24:14.677Z,7.09
2022-11-29T15:27:04.293Z,7.09
2022-11-29T15:29:33.577Z,7.09
2022-11-29T15:32:05.146Z,7.09
2022-11-29T15:34:40.050Z,7.05
2022-11-29T15:37:13.796Z,7.02
2022-11-29T15:39:43.042Z,6.97
2022-11-29T15:42:14.392Z,6.97
2022-11-29T15:44:48.198Z,6.93
2022-11-29T15:47:23.857Z,6.99
2022-11-29T15:49:54.431Z,6.96
2022-11-29T15:52:26.133Z,6.96
2022-11-29T15:54:58.532Z,6.96
2022-11-29T15:57:39.774Z,6.92
2022-11-29T16:00:19.631Z,6.89
2022-11-29T16:02:54.736Z,6.92
2022-11-29T16:05:36.190Z,6.94
2022-11-29T16:08:08.579Z,6.93
2022-11-29T16:10:43.743Z,6.96
2022-11-29T16:13:39.068Z,6.91
2022-11-29T16:16:22.172Z,6.93
2022-11-29T16:18:52.037Z,6.93
2022-11-29T16:21:32.366Z,6.97
2022-11-29T16:24:13.933Z,7.00
2022-11-29T16:26:44.906Z,7.00
2022-11-29T16:29:28.144Z,6.93
2022-11-29T16:31:57.715Z,6.90
2022-11-29T16:34:32.795Z,6.88
2022-11-29T16:37:05.322Z,6.88
2022-11-29T16:39:36.853Z,6.82
2022-11-29T16:42:25.568Z,6.81
2022-11-29T16:45:18.568Z,6.79
2022-11-29T16:47:54.709Z,6.79
2022-11-29T16:50:24.199Z,6.80
2022-11-29T16:52:56.812Z,6.81
2022-11-29T16:55:24.604Z,6.77
2022-11-29T16:57:54.152Z,6.76
2022-11-29T17:00:33.949Z,6.76
2022-11-29T17:03:03.393Z,6.76
2022-11-29T17:05:32.693Z,6.74
2022-11-29T17:08:02.230Z,6.80
2022-11-29T17:10:32.694Z,6.75
2022-11-29T17:13:03.772Z,6.77
2022-11-29T17:15:33.313Z,6.72
2022-11-29T17:18:02.690Z,6.68
2022-11-29T17:20:32.052Z,6.72
2022-11-29T17:23:01.281Z,6.72
2022-11-29T17:25:30.671Z,6.71
2022-11-29T17:27:59.979Z,6.74
2022-11-29T17:30:30.118Z,6.76
2022-11-29T17:32:59.467Z,6.75
2022-11-29T17:35:28.686Z,6.75
2022-11-29T17:37:59.841Z,6.76
2022-11-29T17:40:29.090Z,6.77
2022-11-29T17:42:58.553Z,6.81
2022-11-29T17:45:27.960Z,6.77
2022-11-29T17:47:59.048Z,6.76
2022-11-29T17:50:28.354Z,6.74
2022-11-29T17:52:57.585Z,6.74
2022-11-29T17:55:29.544Z,6.75
2022-11-29T17:57:57.899Z,6.74
2022-11-29T18:00:27.192Z,6.67
2022-11-29T18:02:56.426Z,6.69
2022-11-29T18:05:28.981Z,6.67
2022-11-29T18:07:59.845Z,6.65
2022-11-29T18:10:29.896Z,6.69
2022-11-29T18:12:59.259Z,6.72
2022-11-29T18:15:28.552Z,6.69
2022-11-29T18:17:57.939Z,6.68
2022-11-29T18:20:27.307Z,6.65
2022-11-29T18:22:56.649Z,6.62
2022-11-29T18:25:41.130Z,6.64
2022-11-29T18:27:57.167Z,6.71
2022-11-29T18:30:26.573Z,6.73
2022-11-29T18:32:57.550Z,6.71
2022-11-29T18:35:27.963Z,6.76
2022-11-29T18:38:14.696Z,6.72
2022-11-29T18:40:28.303Z,6.81
2022-11-29T18:42:57.685Z,6.76
2022-11-29T18:45:26.920Z,6.75
2022-11-29T18:47:56.509Z,6.65
2022-11-29T18:50:25.726Z,6.66
2022-11-29T18:52:56.003Z,6.63
2022-11-29T18:55:25.870Z,6.64
2022-11-29T18:57:55.878Z,6.58
2022-11-29T19:00:25.155Z,6.57
2022-11-29T19:02:55.047Z,6.59
2022-11-29T19:05:24.375Z,6.52
2022-11-29T19:07:53.952Z,6.52
2022-11-29T19:10:23.251Z,6.46
2022-11-29T19:12:52.762Z,6.48
2022-11-29T19:15:21.996Z,6.43
2022-11-29T19:17:51.545Z,6.41
2022-11-29T19:20:20.759Z,6.42
2022-11-29T19:22:50.173Z,6.42
2022-11-29T19:25:19.378Z,6.38
2022-11-29T19:27:49.142Z,6.39
2022-11-29T19:30:18.645Z,6.36
2022-11-29T19:32:48.041Z,6.37
2022-11-29T19:35:17.638Z,6.31
2022-11-29T19:37:47.066Z,6.31
2022-11-29T19:40:16.576Z,6.30
2022-11-29T19:42:50.254Z,6.31
2022-11-29T19:45:19.619Z,6.30
2022-11-29T19:47:49.513Z,6.32
2022-11-29T19:50:18.908Z,6.28
2022-11-29T19:52:48.495Z,6.28
2022-11-29T19:55:17.863Z,6.24
2022-11-29T19:57:47.182Z,6.30
2022-11-29T20:00:17.258Z,6.32
2022-11-29T20:02:46.696Z,6.30
2022-11-29T20:05:16.196Z,6.23
2022-11-29T20:07:45.525Z,6.02
2022-11-29T20:10:14.992Z,6.16
2022-11-29T20:12:44.626Z,6.12
2022-11-29T20:15:13.943Z,6.12
2022-11-29T20:17:43.221Z,6.15
2022-11-29T20:20:13.271Z,6.14
2022-11-29T20:22:42.526Z,6.22
2022-11-29T20:25:13.267Z,6.21
2022-11-29T20:27:42.552Z,6.29
2022-11-29T20:30:12.819Z,6.25
2022-11-29T20:32:42.207Z,6.22
2022-11-29T20:35:12.329Z,6.13
2022-11-29T20:38:10.445Z,6.06
2022-11-29T20:41:02.489Z,5.96
2022-11-29T20:43:46.189Z,5.95
2022-11-29T20:46:16.196Z,5.93
2022-11-29T20:48:45.749Z,5.97
2022-11-29T20:51:15.183Z,5.93
2022-11-29T20:53:46.579Z,5.82
2022-11-29T20:56:16.162Z,5.80
2022-11-29T20:58:45.649Z,5.76
2022-11-29T21:01:15.823Z,5.73
2022-11-29T21:03:45.474Z,5.68
2022-11-29T21:06:15.097Z,5.59
2022-11-29T21:08:44.314Z,5.53
2022-11-29T21:11:13.931Z,5.56
2022-11-29T21:13:43.582Z,5.52
2022-11-29T21:16:14.547Z,5.54
2022-11-29T21:18:44.158Z,5.58
2022-11-29T21:21:16.754Z,5.55
2022-11-29T21:23:49.732Z,5.61
2022-11-29T21:26:21.730Z,5.54
2022-11-29T21:29:02.930Z,5.56
2022-11-29T21:31:32.551Z,5.44
2022-11-29T21:34:02.077Z,5.43
2022-11-29T21:36:31.414Z,5.38
2022-11-29T21:39:04.825Z,5.36
2022-11-29T21:41:31.576Z,5.38
2022-11-29T21:44:08.690Z,5.37
2022-11-29T21:46:32.152Z,5.40
2022-11-29T21:49:01.368Z,5.35
2022-11-29T21:51:30.818Z,5.33
2022-11-29T21:54:00.043Z,5.35
2022-11-29T21:56:29.573Z,5.40
2022-11-29T21:58:58.804Z,5.35
2022-11-29T22:01:29.592Z,5.37
2022-11-29T22:03:59.017Z,5.41
2022-11-29T22:06:29.503Z,5.42
2022-11-29T22:08:59.829Z,5.42
2022-11-29T22:11:34.393Z,5.44
2022-11-29T22:14:15.391Z,5.46
2022-11-29T22:16:54.263Z,5.49
2022-11-29T22:19:28.753Z,5.48
2022-11-29T22:22:00.288Z,5.54
2022-11-29T22:24:31.840Z,5.53
2022-11-29T22:27:01.833Z,5.52
2022-11-29T22:29:31.104Z,5.55
2022-11-29T22:32:01.353Z,5.57
2022-11-29T22:34:30.650Z,5.58
2022-11-29T22:37:00.056Z,5.61
2022-11-29T22:39:32.121Z,5.57
2022-11-29T22:42:01.620Z,5.73
2022-11-29T22:44:31.321Z,5.69
2022-11-29T22:47:00.659Z,5.67
2022-11-29T22:49:30.137Z,5.63
2022-11-29T22:51:59.385Z,5.63
2022-11-29T22:54:28.607Z,5.69
2022-11-29T22:56:58.023Z,5.68
2022-11-29T22:59:27.245Z,5.70
2022-11-29T23:01:56.684Z,5.66
2022-11-29T23:04:25.938Z,5.70
2022-11-29T23:06:55.242Z,5.70
2022-11-29T23:09:24.457Z,5.72
2022-11-29T23:11:56.444Z,5.69
2022-11-29T23:14:26.384Z,5.66
2022-11-29T23:16:55.893Z,5.66
2022-11-29T23:19:25.107Z,5.69
2022-11-29T23:21:55.989Z,5.72
2022-11-29T23:24:25.446Z,5.66
2022-11-29T23:26:54.677Z,5.64
2022-11-29T23:29:24.137Z,5.67
2022-11-29T23:31:53.438Z,5.68
2022-11-29T23:34:22.824Z,5.68
2022-11-29T23:36:53.272Z,5.68
2022-11-29T23:39:22.949Z,5.48
2022-11-29T23:41:52.195Z,5.66
2022-11-29T23:44:21.786Z,5.64
2022-11-29T23:46:51.005Z,5.62
2022-11-29T23:49:20.390Z,5.60
2022-11-29T23:51:49.619Z,5.63
2022-11-29T23:54:18.835Z,5.63
2022-11-29T23:56:48.058Z,5.63
2022-11-29T23:59:17.387Z,5.61
